»·PEaware :: FDX3171 KPSC-KPDX

FDX3171 :: KPSC-KPDX

FLIGHT INFORMATION

Flight Status: Arrived
Operator:
Federal Express
More flights by this operator :: More flights under this callsign
Pilot: David C. (16084)
Aircraft: BOEING 767-300
(B763)
More flights by this aircraft type
Origin: KPSC Tri-Cities
United States
Destination: KPDX Portland Intl
United States
More flights between these airports :: More routes between these airports
Route: +PSC7 PSC V520 LTJ YENTL HHOOD4
File this flight plan on PilotEdge
Remarks:
Altitude:
(Current/Filed)
22,000ft
Speed:
(Current/Filed)
504kts
Departed: 27-Dec-17 06:02 PM
Arrived: 27-Dec-17 06:48 PM
Distance/Time
Traveled:
151nm/0:46
Distance/Time
To Go:
Arrived

Flight Plot

Page will automatically refresh every two minutes.

Flight plan parsing failed; only flown route is shown


Map Options




Map Legend


Flown Route
Filed Route
Departure Airport
Arrival Airport
Navaid (VOR, NDB)
Fix

Horizontal Profiles

Position Reports

Time Latitude Longitude Heading Altitude Ground
Speed
27-Dec-17 17:35 46.257224 -119.109896 225 421ft 0kts
27-Dec-17 17:36 46.257224 -119.109896 225 421ft 0kts
27-Dec-17 17:37 46.257224 -119.109896 225 421ft 0kts
27-Dec-17 17:38 46.257224 -119.109896 225 421ft 0kts
27-Dec-17 17:39 46.257224 -119.109896 225 421ft 0kts
27-Dec-17 17:40 46.257224 -119.109896 225 421ft 0kts
27-Dec-17 17:41 46.257224 -119.109896 225 421ft 0kts
27-Dec-17 17:42 46.257224 -119.109896 225 421ft 0kts
27-Dec-17 17:43 46.257224 -119.109896 225 421ft 0kts
27-Dec-17 17:44 46.257224 -119.109896 225 421ft 0kts
27-Dec-17 17:45 46.257224 -119.109896 225 421ft 0kts
27-Dec-17 17:46 46.257224 -119.109896 225 421ft 0kts
27-Dec-17 17:47 46.257224 -119.109896 225 421ft 0kts
27-Dec-17 17:48 46.257224 -119.109896 225 421ft 0kts
27-Dec-17 17:49 46.257224 -119.109896 225 421ft 0kts
27-Dec-17 17:50 46.257224 -119.109896 225 421ft 0kts
27-Dec-17 17:51 46.257224 -119.109896 225 421ft 0kts
27-Dec-17 17:52 46.257224 -119.109896 225 421ft 0kts
27-Dec-17 17:53 46.257224 -119.109896 225 421ft 0kts
27-Dec-17 17:54 46.257224 -119.109896 225 421ft 0kts
27-Dec-17 17:55 46.257224 -119.109896 225 421ft 0kts
27-Dec-17 17:56 46.257224 -119.109896 225 421ft 0kts
27-Dec-17 17:57 46.257224 -119.109896 225 421ft 0kts
27-Dec-17 17:58 46.257224 -119.109896 225 421ft 0kts
27-Dec-17 17:59 46.257224 -119.109896 225 421ft 0kts
27-Dec-17 18:00 46.257596 -119.109670 164 421ft 2kts
27-Dec-17 18:01 46.257759 -119.109802 136 421ft 0kts
27-Dec-17 18:02 46.257759 -119.109802 136 421ft 0kts
27-Dec-17 18:03 46.257759 -119.109802 136 421ft 0kts
27-Dec-17 18:04 46.257279 -119.108698 72 421ft 10kts
27-Dec-17 18:05 46.257748 -119.107836 43 421ft 0kts
27-Dec-17 18:06 46.257748 -119.107836 43 421ft 0kts
27-Dec-17 18:07 46.258092 -119.107399 37 421ft 13kts
27-Dec-17 18:08 46.278074 -119.135005 315 1215ft 206kts
27-Dec-17 18:09 46.320403 -119.196060 315 3920ft 219kts
27-Dec-17 18:10 46.362227 -119.258809 315 6733ft 217kts
27-Dec-17 18:11 46.404096 -119.319900 315 9539ft 215kts
27-Dec-17 18:12 46.448460 -119.379820 315 9986ft 216kts
27-Dec-17 18:13 46.470836 -119.451881 243 10008ft 232kts
27-Dec-17 18:14 46.430185 -119.526062 238 9989ft 236kts
27-Dec-17 18:15 46.386991 -119.605900 239 13534ft 256kts
27-Dec-17 18:16 46.343229 -119.685796 239 16848ft 266kts
27-Dec-17 18:17 46.295829 -119.769947 239 19995ft 277kts
27-Dec-17 18:18 46.245379 -119.856681 239 22359ft 304kts
27-Dec-17 18:19 46.183747 -119.965414 236 22430ft 392kts
27-Dec-17 18:20 46.111615 -120.085275 236 22396ft 396kts
27-Dec-17 18:21 46.041075 -120.206616 237 22376ft 395kts
27-Dec-17 18:22 45.968980 -120.326452 229 22360ft 404kts
27-Dec-17 18:23 45.904733 -120.449000 250 22367ft 384kts
27-Dec-17 18:24 45.864164 -120.581091 253 22386ft 381kts
27-Dec-17 18:25 45.824677 -120.717437 252 22412ft 382kts
27-Dec-17 18:26 45.784146 -120.857775 252 22411ft 382kts
27-Dec-17 18:27 45.743367 -120.998317 252 22410ft 381kts
27-Dec-17 18:28 45.701832 -121.137896 250 22355ft 383kts
27-Dec-17 18:29 45.664533 -121.255681 250 20685ft 309kts
27-Dec-17 18:30 45.628970 -121.367769 250 19563ft 307kts
27-Dec-17 18:31 45.595896 -121.478121 251 16756ft 301kts
27-Dec-17 18:32 45.565532 -121.586546 251 13986ft 280kts
27-Dec-17 18:33 45.538135 -121.683938 250 11244ft 265kts
27-Dec-17 18:34 45.532179 -121.785220 274 10052ft 260kts
27-Dec-17 18:35 45.535634 -121.887930 275 10018ft 261kts
27-Dec-17 18:36 45.545028 -121.989931 288 10013ft 259kts
27-Dec-17 18:37 45.565457 -122.088350 288 10008ft 259kts
27-Dec-17 18:38 45.585963 -122.186932 288 9884ft 259kts
27-Dec-17 18:39 45.605323 -122.280432 289 9222ft 248kts
27-Dec-17 18:40 45.624921 -122.375576 290 8323ft 251kts
27-Dec-17 18:41 45.645511 -122.469417 292 7496ft 251kts
27-Dec-17 18:42 45.675846 -122.554686 293 6527ft 232kts
27-Dec-17 18:43 45.705325 -122.636688 295 5189ft 231kts
27-Dec-17 18:44 45.734125 -122.716340 294 5002ft 227kts
27-Dec-17 18:45 45.763063 -122.796591 294 4993ft 226kts
27-Dec-17 18:46 45.781173 -122.864357 256 4953ft 209kts
27-Dec-17 18:47 45.737092 -122.933246 197 3997ft 202kts
27-Dec-17 18:48 45.700420 -122.909566 92 3998ft 202kts
27-Dec-17 18:49 45.679091 -122.835872 118 3062ft 150kts
27-Dec-17 18:50 45.661792 -122.792464 117 2710ft 150kts
27-Dec-17 18:51 45.641700 -122.740979 118 1931ft 148kts
27-Dec-17 18:52 45.621886 -122.690008 118 1142ft 146kts
27-Dec-17 18:53 45.602890 -122.641211 118 372ft 134kts
27-Dec-17 18:54 45.587344 -122.601302 118 40ft 37kts
27-Dec-17 18:55 45.583140 -122.592780 199 40ft 0kts
27-Dec-17 18:56 45.583023 -122.592870 220 40ft 4kts
27-Dec-17 18:57 45.586229 -122.601702 295 40ft 26kts
27-Dec-17 18:58 45.584609 -122.611486 224 40ft 29kts
27-Dec-17 18:59 45.581706 -122.610748 46 40ft 1kts
27-Dec-17 19:00 45.581728 -122.610715 46 40ft 0kts

Navigation Log

Ident Type
Flight plan parsing failed, navigation log unavailable